Rosser, TX (75157)

6:56 PM CDT on August 30, 2015 (GMT -0500)
Kaufman County | | Change Station
CLOSE
Current Station
Personal Weather Station
Location: Kaufman, TX
Elevation: 469 ft
Nearby Weather Stations

Elev 469 ft 32.59 °N, 96.39 °W | Updated 8 seconds ago

Mostly Cloudy
Mostly Cloudy
88.9 °F
Feels Like 92 °F
N
8.3
Wind Variable Wind from SE
Gusts 9.8 mph

Today
High -- | Low -- °F
--% Chance of Precip.
Yesterday
High -- | Low -- °F
Precip. -- in
6:59 AM 7:53 PM
Full, 98% visible
Pressure 29.94 in
Visibility 10.0 miles
Clouds Mostly Cloudy 10000 ft
Heat Index 92 °F
Dew Point 67 °F
Humidity 49%
Rainfall 0.00 in
Snow Depth Not available.
UV 1.0 out of 12
Pollen 8.70 out of 12
Air Quality Not available.
Flu Activity Not available.
METAR KHQZ 302350Z 17008KT 10SM BKN100 34/16 A2994
Pressure 29.94 in
Visibility 10.0 miles
Clouds Mostly Cloudy 10000 ft
Heat Index 92 °F
Dew Point 67 °F
Humidity 49%
Rainfall 0.00 in
Snow Depth Not available.
UV 1.0 out of 12
Pollen 8.70 out of 12
Air Quality Not available.
Flu Activity Not available.
METAR KHQZ 302350Z 17008KT 10SM BKN100 34/16 A2994
Nowcast | as of 6:13 PM CDT on August 30, 2015

Isolated thunderstorms are possible generally along and south of I-30...and east of I-35...through the evening hours. At 6 PM...the strongest storms were located east of The Temple area and were moving little. Brief heavy rain and gusty winds can be expected in the stronger storms.

×

10-Day Weather Forecast

×

Almanac

Astronomy

Aug. 30, 2015 Rise Set
Actual Time
Civil Twilight
Nautical Twilight
Astronomical Twilight
Moon
Length of Visible Light
Length of Day
Tomorrow will be .
, % of the Moon is Illuminated

Today's Extremes

State Highs State Lows

Community

WunderPhotos

Upload Photos

1,851,095 photos uploaded!

WunderBlogs® & News

Nearby

Air Quality

  Air Quality AQ Index Pollutant
Not available.

Snow Depth

Station Depth Elevation

Earthquake Activity

City Distance Mag. Time & Date
Minimum magnitude displayed is 2.5.

Coastal Water Temperatures

Place Temperature

Stations

Nearby Weather Stations

Station Location Temp. Windchill Dew Point Humidity Wind Precip. Elev Updated Type